sensor_id;sensor_type;location;lat;lon;timestamp;pressure;altitude;pressure_sealevel;temperature;humidity
81354;BME280;70810;52.038;8.524;2024-01-07T00:00:27;100318.63;;;-0.50;91.59
81354;BME280;70810;52.038;8.524;2024-01-07T00:03:07;100311.56;;;-0.44;91.33
81354;BME280;70810;52.038;8.524;2024-01-07T00:05:35;100315.13;;;-0.52;91.32
81354;BME280;70810;52.038;8.524;2024-01-07T00:08:03;100323.03;;;-0.51;91.60
81354;BME280;70810;52.038;8.524;2024-01-07T00:10:29;100327.41;;;-0.54;91.81
81354;BME280;70810;52.038;8.524;2024-01-07T00:12:56;100310.72;;;-0.52;91.50
81354;BME280;70810;52.038;8.524;2024-01-07T00:15:24;100330.94;;;-0.51;91.74
81354;BME280;70810;52.038;8.524;2024-01-07T00:17:52;100337.94;;;-0.44;91.57
81354;BME280;70810;52.038;8.524;2024-01-07T00:20:40;100338.84;;;-0.54;91.56
81354;BME280;70810;52.038;8.524;2024-01-07T00:23:07;100335.34;;;-0.58;92.22
81354;BME280;70810;52.038;8.524;2024-01-07T00:25:33;100354.66;;;-0.52;91.87
81354;BME280;70810;52.038;8.524;2024-01-07T00:28:00;100340.56;;;-0.53;91.44
81354;BME280;70810;52.038;8.524;2024-01-07T00:30:26;100351.97;;;-0.49;91.59
81354;BME280;70810;52.038;8.524;2024-01-07T00:32:55;100345.88;;;-0.61;91.76
81354;BME280;70810;52.038;8.524;2024-01-07T00:35:22;100356.41;;;-0.61;91.64
81354;BME280;70810;52.038;8.524;2024-01-07T00:37:50;100355.50;;;-0.58;92.00
81354;BME280;70810;52.038;8.524;2024-01-07T00:40:16;100359.91;;;-0.66;91.98
81354;BME280;70810;52.038;8.524;2024-01-07T00:42:51;100357.28;;;-0.62;92.16
81354;BME280;70810;52.038;8.524;2024-01-07T00:45:18;100359.03;;;-0.64;91.76
81354;BME280;70810;52.038;8.524;2024-01-07T00:47:45;100352.88;;;-0.61;91.88
81354;BME280;70810;52.038;8.524;2024-01-07T00:50:12;100352.00;;;-0.62;92.29
81354;BME280;70810;52.038;8.524;2024-01-07T00:52:38;100355.53;;;-0.69;92.16
81354;BME280;70810;52.038;8.524;2024-01-07T00:55:09;100366.06;;;-0.78;92.15
81354;BME280;70810;52.038;8.524;2024-01-07T00:57:35;100352.03;;;-0.79;92.33
81354;BME280;70810;52.038;8.524;2024-01-07T01:00:05;100374.88;;;-0.76;92.56
81354;BME280;70810;52.038;8.524;2024-01-07T01:02:31;100361.72;;;-0.73;92.70
81354;BME280;70810;52.038;8.524;2024-01-07T01:04:58;100377.47;;;-0.71;92.40
81354;BME280;70810;52.038;8.524;2024-01-07T01:07:25;100381.00;;;-0.76;92.52
81354;BME280;70810;52.038;8.524;2024-01-07T01:09:51;100368.72;;;-0.73;92.67
81354;BME280;70810;52.038;8.524;2024-01-07T01:12:19;100378.38;;;-0.69;92.38
81354;BME280;70810;52.038;8.524;2024-01-07T01:14:47;100373.13;;;-0.69;92.19
81354;BME280;70810;52.038;8.524;2024-01-07T01:17:14;100380.13;;;-0.62;92.09
81354;BME280;70810;52.038;8.524;2024-01-07T01:19:41;100388.03;;;-0.62;92.30
81354;BME280;70810;52.038;8.524;2024-01-07T01:22:07;100395.06;;;-0.67;91.77
81354;BME280;70810;52.038;8.524;2024-01-07T01:24:34;100390.66;;;-0.58;92.07
81354;BME280;70810;52.038;8.524;2024-01-07T01:29:51;100412.59;;;-0.60;91.05
81354;BME280;70810;52.038;8.524;2024-01-07T01:32:19;100414.38;;;-0.64;90.55
81354;BME280;70810;52.038;8.524;2024-01-07T01:34:46;100413.47;;;-0.53;91.11
81354;BME280;70810;52.038;8.524;2024-01-07T01:37:14;100421.38;;;-0.49;90.94
81354;BME280;70810;52.038;8.524;2024-01-07T01:39:41;100434.53;;;-0.58;91.21
81354;BME280;70810;52.038;8.524;2024-01-07T01:42:08;100431.06;;;-0.68;90.42
81354;BME280;70810;52.038;8.524;2024-01-07T01:44:38;100431.94;;;-0.69;90.27
81354;BME280;70810;52.038;8.524;2024-01-07T01:47:16;100442.47;;;-0.70;89.57
81354;BME280;70810;52.038;8.524;2024-01-07T01:49:47;100429.31;;;-0.66;90.36
81354;BME280;70810;52.038;8.524;2024-01-07T01:55:38;100423.16;;;-0.71;89.83
81354;BME280;70810;52.038;8.524;2024-01-07T01:58:17;100439.81;;;-0.60;90.07
81354;BME280;70810;52.038;8.524;2024-01-07T02:00:44;100441.59;;;-0.52;89.75
81354;BME280;70810;52.038;8.524;2024-01-07T02:03:12;100453.00;;;-0.55;89.49
81354;BME280;70810;52.038;8.524;2024-01-07T02:05:39;100450.34;;;-0.61;89.39
81354;BME280;70810;52.038;8.524;2024-01-07T02:08:06;100443.31;;;-0.50;89.55
81354;BME280;70810;52.038;8.524;2024-01-07T02:10:33;100448.63;;;-0.56;89.61
81354;BME280;70810;52.038;8.524;2024-01-07T02:13:02;100451.22;;;-0.70;89.53
81354;BME280;70810;52.038;8.524;2024-01-07T02:15:29;100453.88;;;-0.62;90.24
81354;BME280;70810;52.038;8.524;2024-01-07T02:17:55;100460.91;;;-0.70;89.69
81354;BME280;70810;52.038;8.524;2024-01-07T02:20:23;100459.13;;;-0.70;89.88
81354;BME280;70810;52.038;8.524;2024-01-07T02:22:50;100466.19;;;-0.67;90.39
81354;BME280;70810;52.038;8.524;2024-01-07T02:25:19;100449.50;;;-0.74;89.51
81354;BME280;70810;52.038;8.524;2024-01-07T02:27:46;100463.53;;;-0.58;89.76
81354;BME280;70810;52.038;8.524;2024-01-07T02:30:12;100453.00;;;-0.70;90.24
81354;BME280;70810;52.038;8.524;2024-01-07T02:32:39;100474.06;;;-0.58;89.97
81354;BME280;70810;52.038;8.524;2024-01-07T02:35:06;100472.31;;;-0.70;89.91
81354;BME280;70810;52.038;8.524;2024-01-07T02:37:33;100483.72;;;-0.82;89.41
81354;BME280;70810;52.038;8.524;2024-01-07T02:40:00;100481.97;;;-0.87;89.35
81354;BME280;70810;52.038;8.524;2024-01-07T02:42:28;100483.72;;;-0.91;89.26
81354;BME280;70810;52.038;8.524;2024-01-07T02:44:54;100478.47;;;-0.79;89.32
81354;BME280;70810;52.038;8.524;2024-01-07T02:47:21;100477.59;;;-0.91;89.23
81354;BME280;70810;52.038;8.524;2024-01-07T02:49:48;100493.38;;;-0.90;89.00
81354;BME280;70810;52.038;8.524;2024-01-07T02:52:14;100483.72;;;-0.92;89.56
81354;BME280;70810;52.038;8.524;2024-01-07T02:54:41;100501.25;;;-0.99;89.52
81354;BME280;70810;52.038;8.524;2024-01-07T02:57:08;100489.84;;;-0.95;89.30
81354;BME280;70810;52.038;8.524;2024-01-07T02:59:35;100449.44;;;-1.26;89.47
81354;BME280;70810;52.038;8.524;2024-01-07T03:02:02;100503.00;;;-0.95;89.56
81354;BME280;70810;52.038;8.524;2024-01-07T03:04:29;100494.25;;;-0.92;89.02
81354;BME280;70810;52.038;8.524;2024-01-07T03:06:55;100498.63;;;-0.96;89.13
81354;BME280;70810;52.038;8.524;2024-01-07T03:09:22;100495.13;;;-0.92;88.89
81354;BME280;70810;52.038;8.524;2024-01-07T03:11:48;100514.44;;;-0.95;89.48
81354;BME280;70810;52.038;8.524;2024-01-07T03:14:15;100513.53;;;-1.03;88.89
81354;BME280;70810;52.038;8.524;2024-01-07T03:16:47;100501.25;;;-1.02;89.57
81354;BME280;70810;52.038;8.524;2024-01-07T03:19:13;100517.03;;;-1.04;88.87
81354;BME280;70810;52.038;8.524;2024-01-07T03:21:40;100519.69;;;-1.07;88.69
81354;BME280;70810;52.038;8.524;2024-01-07T03:24:07;100523.16;;;-1.13;88.79
81354;BME280;70810;52.038;8.524;2024-01-07T03:26:33;100523.16;;;-1.09;88.98
81354;BME280;70810;52.038;8.524;2024-01-07T03:29:00;100517.03;;;-1.13;88.84
81354;BME280;70810;52.038;8.524;2024-01-07T03:31:27;100528.44;;;-1.11;88.77
81354;BME280;70810;52.038;8.524;2024-01-07T03:33:56;100537.19;;;-1.17;88.72
81354;BME280;70810;52.038;8.524;2024-01-07T03:36:23;100515.25;;;-1.13;88.99
81354;BME280;70810;52.038;8.524;2024-01-07T03:38:49;100531.94;;;-1.07;88.21
81354;BME280;70810;52.038;8.524;2024-01-07T03:41:16;100533.69;;;-1.09;87.84
81354;BME280;70810;52.038;8.524;2024-01-07T03:43:44;100546.00;;;-1.10;87.73
81354;BME280;70810;52.038;8.524;2024-01-07T03:46:10;100531.06;;;-1.09;87.60
81354;BME280;70810;52.038;8.524;2024-01-07T03:48:37;100541.56;;;-1.14;86.95
81354;BME280;70810;52.038;8.524;2024-01-07T03:51:05;100542.47;;;-1.17;87.50
81354;BME280;70810;52.038;8.524;2024-01-07T03:53:32;100520.44;;;-1.42;86.65
81354;BME280;70810;52.038;8.524;2024-01-07T03:55:59;100543.31;;;-1.18;87.01
81354;BME280;70810;52.038;8.524;2024-01-07T03:58:25;100548.63;;;-1.07;87.51
81354;BME280;70810;52.038;8.524;2024-01-07T04:00:52;100556.53;;;-1.08;87.87
81354;BME280;70810;52.038;8.524;2024-01-07T04:03:19;100553.88;;;-1.05;89.07
81354;BME280;70810;52.038;8.524;2024-01-07T04:05:45;100554.78;;;-1.02;89.40
81354;BME280;70810;52.038;8.524;2024-01-07T04:08:13;100590.75;;;-1.10;88.99
81354;BME280;70810;52.038;8.524;2024-01-07T04:10:41;100570.56;;;-1.09;89.71
81354;BME280;70810;52.038;8.524;2024-01-07T04:13:08;100581.94;;;-1.18;90.36
81354;BME280;70810;52.038;8.524;2024-01-07T04:15:34;100598.50;;;-1.36;91.29
81354;BME280;70810;52.038;8.524;2024-01-07T04:18:01;100587.97;;;-1.42;93.28
81354;BME280;70810;52.038;8.524;2024-01-07T04:20:31;100576.56;;;-1.38;92.83
81354;BME280;70810;52.038;8.524;2024-01-07T04:22:58;100579.22;;;-1.38;92.05
81354;BME280;70810;52.038;8.524;2024-01-07T04:25:26;100595.78;;;-1.53;90.64
81354;BME280;70810;52.038;8.524;2024-01-07T04:27:53;100597.56;;;-1.51;91.38
81354;BME280;70810;52.038;8.524;2024-01-07T04:30:22;100607.19;;;-1.50;91.52
81354;BME280;70810;52.038;8.524;2024-01-07T04:32:49;100615.13;;;-1.45;91.86
81354;BME280;70810;52.038;8.524;2024-01-07T04:35:15;100624.75;;;-1.48;90.60
81354;BME280;70810;52.038;8.524;2024-01-07T04:37:42;100614.22;;;-1.50;91.09
81354;BME280;70810;52.038;8.524;2024-01-07T04:40:10;100617.72;;;-1.51;91.83
81354;BME280;70810;52.038;8.524;2024-01-07T04:42:38;100620.34;;;-1.54;92.07
81354;BME280;70810;52.038;8.524;2024-01-07T04:45:05;100608.00;;;-1.60;92.50
81354;BME280;70810;52.038;8.524;2024-01-07T04:47:33;100617.72;;;-1.50;92.37
81354;BME280;70810;52.038;8.524;2024-01-07T04:50:00;100629.16;;;-1.49;91.88
81354;BME280;70810;52.038;8.524;2024-01-07T04:52:27;100607.19;;;-1.57;92.05
81354;BME280;70810;52.038;8.524;2024-01-07T04:54:54;100616.88;;;-1.47;91.85
81354;BME280;70810;52.038;8.524;2024-01-07T04:57:21;100619.47;;;-1.52;91.16
81354;BME280;70810;52.038;8.524;2024-01-07T04:59:50;100628.25;;;-1.53;91.29
81354;BME280;70810;52.038;8.524;2024-01-07T05:02:17;100625.59;;;-1.57;91.01
81354;BME280;70810;52.038;8.524;2024-01-07T05:04:43;100629.94;;;-1.61;90.03
81354;BME280;70810;52.038;8.524;2024-01-07T05:07:10;100628.19;;;-1.59;89.37
81354;BME280;70810;52.038;8.524;2024-01-07T05:09:36;100637.81;;;-1.64;88.31
81354;BME280;70810;52.038;8.524;2024-01-07T05:12:03;100639.59;;;-1.63;88.61
81354;BME280;70810;52.038;8.524;2024-01-07T05:14:30;100641.41;;;-1.54;89.75
81354;BME280;70810;52.038;8.524;2024-01-07T05:16:58;100644.03;;;-1.50;88.65
81354;BME280;70810;52.038;8.524;2024-01-07T05:19:25;100638.75;;;-1.56;88.51
81354;BME280;70810;52.038;8.524;2024-01-07T05:21:51;100628.09;;;-1.74;86.72
81354;BME280;70810;52.038;8.524;2024-01-07T05:24:18;100656.16;;;-1.70;86.64
81354;BME280;70810;52.038;8.524;2024-01-07T05:26:45;100654.38;;;-1.77;86.45
81354;BME280;70810;52.038;8.524;2024-01-07T05:29:11;100658.78;;;-1.75;86.32
81354;BME280;70810;52.038;8.524;2024-01-07T05:31:39;100668.38;;;-1.81;85.55
81354;BME280;70810;52.038;8.524;2024-01-07T05:34:07;100704.28;;;-1.82;84.91
81354;BME280;70810;52.038;8.524;2024-01-07T05:36:34;100678.00;;;-1.80;85.20
81354;BME280;70810;52.038;8.524;2024-01-07T05:39:00;100683.25;;;-1.80;85.21
81354;BME280;70810;52.038;8.524;2024-01-07T05:41:27;100679.81;;;-1.75;85.58
81354;BME280;70810;52.038;8.524;2024-01-07T05:43:54;100675.53;;;-1.62;85.80
81354;BME280;70810;52.038;8.524;2024-01-07T05:46:20;100686.97;;;-1.55;85.37
81354;BME280;70810;52.038;8.524;2024-01-07T05:48:48;100690.44;;;-1.62;84.78
81354;BME280;70810;52.038;8.524;2024-01-07T05:51:16;100694.81;;;-1.64;85.25
81354;BME280;70810;52.038;8.524;2024-01-07T05:53:43;100702.72;;;-1.60;86.37
81354;BME280;70810;52.038;8.524;2024-01-07T05:56:10;100711.38;;;-1.76;85.66
81354;BME280;70810;52.038;8.524;2024-01-07T05:58:38;100700.84;;;-1.76;86.02
81354;BME280;70810;52.038;8.524;2024-01-07T06:01:05;100710.44;;;-1.83;86.14
81354;BME280;70810;52.038;8.524;2024-01-07T06:03:32;100715.72;;;-1.78;86.09
81354;BME280;70810;52.038;8.524;2024-01-07T06:05:59;100721.75;;;-1.89;84.87
81354;BME280;70810;52.038;8.524;2024-01-07T06:08:27;100720.88;;;-1.91;85.44
81354;BME280;70810;52.038;8.524;2024-01-07T06:10:55;100723.50;;;-1.91;85.48
81354;BME280;70810;52.038;8.524;2024-01-07T06:13:29;100719.09;;;-1.90;85.83
81354;BME280;70810;52.038;8.524;2024-01-07T06:15:56;100727.06;;;-1.84;87.69
81354;BME280;70810;52.038;8.524;2024-01-07T06:18:23;100727.06;;;-1.84;87.52
81354;BME280;70810;52.038;8.524;2024-01-07T06:20:49;100731.50;;;-1.81;87.58
81354;BME280;70810;52.038;8.524;2024-01-07T06:23:16;100739.34;;;-1.84;88.01
81354;BME280;70810;52.038;8.524;2024-01-07T06:25:44;100742.81;;;-1.85;87.90
81354;BME280;70810;52.038;8.524;2024-01-07T06:28:11;100748.97;;;-1.86;88.49
81354;BME280;70810;52.038;8.524;2024-01-07T06:30:39;100745.41;;;-1.92;88.46
81354;BME280;70810;52.038;8.524;2024-01-07T06:33:08;100755.88;;;-1.96;88.92
81354;BME280;70810;52.038;8.524;2024-01-07T06:35:35;100754.19;;;-1.90;88.60
81354;BME280;70810;52.038;8.524;2024-01-07T06:38:03;100764.72;;;-1.90;88.58
81354;BME280;70810;52.038;8.524;2024-01-07T06:40:33;100772.63;;;-1.88;88.06
81354;BME280;70810;52.038;8.524;2024-01-07T06:43:01;100767.38;;;-1.85;87.88
81354;BME280;70810;52.038;8.524;2024-01-07T06:45:28;100772.63;;;-1.88;88.18
81354;BME280;70810;52.038;8.524;2024-01-07T06:48:04;100776.03;;;-1.94;87.81
81354;BME280;70810;52.038;8.524;2024-01-07T06:50:31;100775.97;;;-2.01;87.40
81354;BME280;70810;52.038;8.524;2024-01-07T06:52:57;100787.31;;;-2.04;87.05
81354;BME280;70810;52.038;8.524;2024-01-07T06:55:26;100791.72;;;-2.04;86.11
81354;BME280;70810;52.038;8.524;2024-01-07T06:57:53;100803.13;;;-2.02;85.62
81354;BME280;70810;52.038;8.524;2024-01-07T07:00:24;100807.53;;;-2.00;84.96
81354;BME280;70810;52.038;8.524;2024-01-07T07:02:52;100830.34;;;-1.97;84.32
81354;BME280;70810;52.038;8.524;2024-01-07T07:05:19;100814.53;;;-2.02;84.25
81354;BME280;70810;52.038;8.524;2024-01-07T07:07:46;100827.66;;;-2.00;83.90
81354;BME280;70810;52.038;8.524;2024-01-07T07:10:12;100820.63;;;-2.04;84.18
81354;BME280;70810;52.038;8.524;2024-01-07T07:12:41;100835.53;;;-2.05;82.44
81354;BME280;70810;52.038;8.524;2024-01-07T07:15:08;100831.06;;;-2.14;81.66
81354;BME280;70810;52.038;8.524;2024-01-07T07:17:39;100833.63;;;-2.18;82.26
81354;BME280;70810;52.038;8.524;2024-01-07T07:20:07;100851.22;;;-2.10;82.13
81354;BME280;70810;52.038;8.524;2024-01-07T07:22:42;100843.44;;;-2.02;82.85
81354;BME280;70810;52.038;8.524;2024-01-07T07:25:11;100855.63;;;-2.10;83.18
81354;BME280;70810;52.038;8.524;2024-01-07T07:27:38;100854.72;;;-2.09;83.35
81354;BME280;70810;52.038;8.524;2024-01-07T07:30:16;100857.25;;;-2.18;82.78
81354;BME280;70810;52.038;8.524;2024-01-07T07:32:48;100867.84;;;-2.12;83.41
81354;BME280;70810;52.038;8.524;2024-01-07T07:35:14;100862.66;;;-2.06;83.30
81354;BME280;70810;52.038;8.524;2024-01-07T07:37:42;100870.56;;;-2.04;83.76
81354;BME280;70810;52.038;8.524;2024-01-07T07:40:11;100871.41;;;-2.07;83.64
81354;BME280;70810;52.038;8.524;2024-01-07T07:42:38;100876.69;;;-2.06;82.38
81354;BME280;70810;52.038;8.524;2024-01-07T07:45:06;100900.25;;;-2.13;81.99
81354;BME280;70810;52.038;8.524;2024-01-07T07:47:34;100908.16;;;-2.12;80.88
81354;BME280;70810;52.038;8.524;2024-01-07T07:50:05;100873.03;;;-2.18;81.36
81354;BME280;70810;52.038;8.524;2024-01-07T07:52:32;100895.81;;;-2.17;82.02
81354;BME280;70810;52.038;8.524;2024-01-07T07:54:59;100917.81;;;-2.09;81.53
81354;BME280;70810;52.038;8.524;2024-01-07T07:57:26;100923.91;;;-2.13;80.86
81354;BME280;70810;52.038;8.524;2024-01-07T07:59:54;100953.69;;;-2.13;80.25
81354;BME280;70810;52.038;8.524;2024-01-07T08:02:21;100926.47;;;-2.18;79.87
81354;BME280;70810;52.038;8.524;2024-01-07T08:04:47;100953.56;;;-2.22;79.90
81354;BME280;70810;52.038;8.524;2024-01-07T08:07:15;100946.63;;;-2.18;80.14
81354;BME280;70810;52.038;8.524;2024-01-07T08:09:42;100943.09;;;-2.17;79.45
81354;BME280;70810;52.038;8.524;2024-01-07T08:12:09;100954.44;;;-2.21;79.17
81354;BME280;70810;52.038;8.524;2024-01-07T08:14:37;100945.75;;;-2.16;79.48
81354;BME280;70810;52.038;8.524;2024-01-07T08:17:06;100954.53;;;-2.17;78.78
81354;BME280;70810;52.038;8.524;2024-01-07T08:19:32;100958.06;;;-2.15;78.61
81354;BME280;70810;52.038;8.524;2024-01-07T08:21:59;100965.09;;;-2.12;78.64
81354;BME280;70810;52.038;8.524;2024-01-07T08:24:27;100957.28;;;-2.06;78.50
81354;BME280;70810;52.038;8.524;2024-01-07T08:26:54;100967.69;;;-2.15;77.68
81354;BME280;70810;52.038;8.524;2024-01-07T08:29:21;100979.06;;;-2.15;78.22
81354;BME280;70810;52.038;8.524;2024-01-07T08:31:47;100984.28;;;-2.18;77.13
81354;BME280;70810;52.038;8.524;2024-01-07T08:34:14;100980.75;;;-2.20;77.12
81354;BME280;70810;52.038;8.524;2024-01-07T08:36:41;100977.22;;;-2.22;77.39
81354;BME280;70810;52.038;8.524;2024-01-07T08:39:08;101002.78;;;-2.12;76.50
81354;BME280;70810;52.038;8.524;2024-01-07T08:41:35;100993.88;;;-2.21;76.57
81354;BME280;70810;52.038;8.524;2024-01-07T08:44:02;100983.06;;;-2.40;74.47
81354;BME280;70810;52.038;8.524;2024-01-07T08:46:29;101002.59;;;-2.26;74.45
81354;BME280;70810;52.038;8.524;2024-01-07T08:48:55;101011.31;;;-2.27;73.95
81354;BME280;70810;52.038;8.524;2024-01-07T08:51:22;101001.63;;;-2.29;73.91
81354;BME280;70810;52.038;8.524;2024-01-07T08:53:49;101013.03;;;-2.29;74.16
81354;BME280;70810;52.038;8.524;2024-01-07T08:56:15;101023.59;;;-2.26;74.62
81354;BME280;70810;52.038;8.524;2024-01-07T08:58:49;101014.78;;;-2.28;74.17
81354;BME280;70810;52.038;8.524;2024-01-07T09:01:16;101026.41;;;-2.13;74.02
81354;BME280;70810;52.038;8.524;2024-01-07T09:03:45;101040.16;;;-2.30;73.94
81354;BME280;70810;52.038;8.524;2024-01-07T09:06:12;101019.19;;;-2.27;74.18
81354;BME280;70810;52.038;8.524;2024-01-07T09:08:39;101054.28;;;-2.23;75.08
81354;BME280;70810;52.038;8.524;2024-01-07T09:11:06;101038.50;;;-2.25;74.97
81354;BME280;70810;52.038;8.524;2024-01-07T09:13:36;101033.25;;;-2.25;75.91
81354;BME280;70810;52.038;8.524;2024-01-07T09:16:05;101024.53;;;-2.22;75.78
81354;BME280;70810;52.038;8.524;2024-01-07T09:18:33;101032.59;;;-2.10;75.53
81354;BME280;70810;52.038;8.524;2024-01-07T09:21:00;101045.75;;;-2.10;75.54
81354;BME280;70810;52.038;8.524;2024-01-07T09:23:29;101061.56;;;-2.07;75.24
81354;BME280;70810;52.038;8.524;2024-01-07T09:25:57;101073.78;;;-2.10;74.06
81354;BME280;70810;52.038;8.524;2024-01-07T09:28:36;101058.03;;;-2.09;73.81
81354;BME280;70810;52.038;8.524;2024-01-07T09:31:19;101066.91;;;-1.99;74.30
81354;BME280;70810;52.038;8.524;2024-01-07T09:33:46;101053.69;;;-2.07;72.49
81354;BME280;70810;52.038;8.524;2024-01-07T09:36:13;101058.81;;;-2.13;71.67
81354;BME280;70810;52.038;8.524;2024-01-07T09:38:40;101069.34;;;-2.13;72.30
81354;BME280;70810;52.038;8.524;2024-01-07T09:41:08;101107.94;;;-2.10;71.48
81354;BME280;70810;52.038;8.524;2024-01-07T09:43:35;101064.88;;;-2.18;71.69
81354;BME280;70810;52.038;8.524;2024-01-07T09:46:02;101076.19;;;-2.24;71.48
81354;BME280;70810;52.038;8.524;2024-01-07T09:48:30;101080.47;;;-2.28;71.38
81354;BME280;70810;52.038;8.524;2024-01-07T09:50:57;101095.50;;;-2.22;71.97
81354;BME280;70810;52.038;8.524;2024-01-07T09:53:25;101110.31;;;-2.26;72.34
81354;BME280;70810;52.038;8.524;2024-01-07T09:56:01;101078.81;;;-2.22;71.40
81354;BME280;70810;52.038;8.524;2024-01-07T09:58:29;101085.84;;;-2.21;70.29
81354;BME280;70810;52.038;8.524;2024-01-07T10:00:56;101095.56;;;-2.16;70.20
81354;BME280;70810;52.038;8.524;2024-01-07T10:03:22;101090.34;;;-2.14;70.57
81354;BME280;70810;52.038;8.524;2024-01-07T10:05:51;101089.44;;;-2.16;70.81
81354;BME280;70810;52.038;8.524;2024-01-07T10:08:18;101106.94;;;-2.18;70.97
81354;BME280;70810;52.038;8.524;2024-01-07T10:10:48;101127.81;;;-2.26;70.81
81354;BME280;70810;52.038;8.524;2024-01-07T10:13:20;101099.91;;;-2.19;71.53
81354;BME280;70810;52.038;8.524;2024-01-07T10:15:49;101094.91;;;-2.02;70.53
81354;BME280;70810;52.038;8.524;2024-01-07T10:18:18;101117.69;;;-2.03;69.53
81354;BME280;70810;52.038;8.524;2024-01-07T10:20:46;101121.03;;;-2.13;69.08
81354;BME280;70810;52.038;8.524;2024-01-07T10:23:18;101115.16;;;-1.95;71.58
81354;BME280;70810;52.038;8.524;2024-01-07T10:25:45;101109.09;;;-1.93;70.02
81354;BME280;70810;52.038;8.524;2024-01-07T10:28:13;101124.16;;;-1.82;69.72
81354;BME280;70810;52.038;8.524;2024-01-07T10:30:48;101120.50;;;-1.91;68.99
81354;BME280;70810;52.038;8.524;2024-01-07T10:33:17;101117.09;;;-1.86;69.78
81354;BME280;70810;52.038;8.524;2024-01-07T10:35:52;101149.50;;;-1.88;69.72
81354;BME280;70810;52.038;8.524;2024-01-07T10:38:21;101120.56;;;-1.88;69.94
81354;BME280;70810;52.038;8.524;2024-01-07T10:40:51;101130.09;;;-1.94;69.82
81354;BME280;70810;52.038;8.524;2024-01-07T10:43:19;101109.16;;;-1.88;71.11
81354;BME280;70810;52.038;8.524;2024-01-07T10:45:47;101106.59;;;-1.83;70.01
81354;BME280;70810;52.038;8.524;2024-01-07T10:48:17;101119.66;;;-1.90;71.17
81354;BME280;70810;52.038;8.524;2024-01-07T10:50:49;101119.75;;;-1.83;71.25
81354;BME280;70810;52.038;8.524;2024-01-07T10:53:25;101128.59;;;-1.77;71.72
81354;BME280;70810;52.038;8.524;2024-01-07T10:56:00;101112.09;;;-1.70;71.87
81354;BME280;70810;52.038;8.524;2024-01-07T10:58:27;101107.81;;;-1.63;71.67
81354;BME280;70810;52.038;8.524;2024-01-07T11:00:56;101123.72;;;-1.52;71.63
81354;BME280;70810;52.038;8.524;2024-01-07T11:03:29;101122.66;;;-1.65;70.38
81354;BME280;70810;52.038;8.524;2024-01-07T11:06:01;101131.31;;;-1.72;71.30
81354;BME280;70810;52.038;8.524;2024-01-07T11:08:36;101109.28;;;-1.79;71.74
81354;BME280;70810;52.038;8.524;2024-01-07T11:11:13;101122.53;;;-1.74;72.38
81354;BME280;70810;52.038;8.524;2024-01-07T11:13:41;101109.44;;;-1.71;72.38
81354;BME280;70810;52.038;8.524;2024-01-07T11:16:08;101119.25;;;-1.59;72.48
81354;BME280;70810;52.038;8.524;2024-01-07T11:18:38;101138.63;;;-1.54;72.11
81354;BME280;70810;52.038;8.524;2024-01-07T11:21:05;101115.59;;;-1.69;71.93
81354;BME280;70810;52.038;8.524;2024-01-07T11:23:35;101133.19;;;-1.63;71.97
81354;BME280;70810;52.038;8.524;2024-01-07T11:26:07;101123.56;;;-1.64;71.56
81354;BME280;70810;52.038;8.524;2024-01-07T11:28:48;101112.78;;;-1.81;71.25
81354;BME280;70810;52.038;8.524;2024-01-07T11:31:19;101143.56;;;-1.74;70.97
81354;BME280;70810;52.038;8.524;2024-01-07T11:33:49;101124.31;;;-1.70;71.89
81354;BME280;70810;52.038;8.524;2024-01-07T11:36:17;101136.06;;;-1.48;71.55
81354;BME280;70810;52.038;8.524;2024-01-07T11:38:48;101130.88;;;-1.42;71.44
81354;BME280;70810;52.038;8.524;2024-01-07T11:41:16;101140.56;;;-1.38;70.86
81354;BME280;70810;52.038;8.524;2024-01-07T11:43:56;101114.97;;;-1.50;71.71
81354;BME280;70810;52.038;8.524;2024-01-07T11:46:25;101140.56;;;-1.38;72.14
81354;BME280;70810;52.038;8.524;2024-01-07T11:48:53;101136.03;;;-1.50;72.75
81354;BME280;70810;52.038;8.524;2024-01-07T11:51:24;101149.22;;;-1.46;73.08
81354;BME280;70810;52.038;8.524;2024-01-07T11:53:54;101133.47;;;-1.45;73.02
81354;BME280;70810;52.038;8.524;2024-01-07T11:56:22;101134.56;;;-1.27;72.85
81354;BME280;70810;52.038;8.524;2024-01-07T11:58:51;101134.38;;;-1.41;72.62
81354;BME280;70810;52.038;8.524;2024-01-07T12:01:18;101126.63;;;-1.34;72.33
81354;BME280;70810;52.038;8.524;2024-01-07T12:03:45;101131.13;;;-1.25;72.28
81354;BME280;70810;52.038;8.524;2024-01-07T12:06:12;101128.44;;;-1.28;72.21
81354;BME280;70810;52.038;8.524;2024-01-07T12:08:39;101156.38;;;-1.36;72.32
81354;BME280;70810;52.038;8.524;2024-01-07T12:11:08;101113.34;;;-1.41;71.72
81354;BME280;70810;52.038;8.524;2024-01-07T12:13:42;101130.31;;;-1.19;72.76
81354;BME280;70810;52.038;8.524;2024-01-07T12:16:37;101121.69;;;-1.06;73.00
81354;BME280;70810;52.038;8.524;2024-01-07T12:19:04;101125.94;;;-1.17;72.60
81354;BME280;70810;52.038;8.524;2024-01-07T12:21:31;101142.50;;;-1.24;72.68
81354;BME280;70810;52.038;8.524;2024-01-07T12:24:00;101134.34;;;-1.44;72.83
81354;BME280;70810;52.038;8.524;2024-01-07T12:26:35;101144.97;;;-1.38;73.34
81354;BME280;70810;52.038;8.524;2024-01-07T12:29:06;101130.97;;;-1.36;74.24
81354;BME280;70810;52.038;8.524;2024-01-07T12:31:40;101146.94;;;-1.23;73.86
81354;BME280;70810;52.038;8.524;2024-01-07T12:34:13;101144.06;;;-1.40;74.05
81354;BME280;70810;52.038;8.524;2024-01-07T12:36:45;101138.88;;;-1.36;74.43
81354;BME280;70810;52.038;8.524;2024-01-07T12:39:12;101140.56;;;-1.41;73.82
81354;BME280;70810;52.038;8.524;2024-01-07T12:41:52;101140.78;;;-1.24;73.82
81354;BME280;70810;52.038;8.524;2024-01-07T12:44:22;101152.97;;;-1.30;73.66
81354;BME280;70810;52.038;8.524;2024-01-07T12:46:56;101148.44;;;-1.39;74.29
81354;BME280;70810;52.038;8.524;2024-01-07T12:49:23;101151.06;;;-1.39;74.56
81354;BME280;70810;52.038;8.524;2024-01-07T12:51:49;101151.00;;;-1.45;74.57
81354;BME280;70810;52.038;8.524;2024-01-07T12:54:33;101167.81;;;-1.34;74.27
81354;BME280;70810;52.038;8.524;2024-01-07T12:57:18;101161.75;;;-1.30;74.74
81354;BME280;70810;52.038;8.524;2024-01-07T12:59:45;101156.69;;;-1.15;74.07
81354;BME280;70810;52.038;8.524;2024-01-07T13:02:12;101167.00;;;-1.30;73.94